Accueil
METAR-TAF:

METAR-TAF

Aéroports :

Cleveland, Mississippi, États-Unis

latitude: 33-45-40N, longitude: 090-45-28W, altitude: 42 m

Observation

Le bulletin a été fait il y a 23 minutes, à 07:35 UTC
Vent 7 kt de est/sud-est
Température 3°C
Humidité 100%
Pression 1020 hPa
Visibilité: 16.1 km
Nuages fragmentés à une hauteur de 5000 ft
Ciel couvert à une hauteur de 6500 ft
pluie faible

METAR: KRNV 230735Z AUTO 11007KT 10SM -RA BKN050 OVC065 03/03 A3012 RMK AO2 T00270025

Heure: 01:58 (07:58 UTC)


TAF: absent

Observations et prévisions météorologiques de plus de 4000 aéroports (messages METAR et TAF).

Les stations disponibles sont représentées par des disques jaunes et rouges sur la carte.

Passer la souris dessus pour voir le nom de la station.

Cliquer dessus pour voir les observations et prévisions météorologiques.

Pour changer de carte: cliquez sur les boutons verts avec une croix noire pour zoomer, sur le bouton vert avec un tiret pour effectuer un zoom arrière, ou sur les flèches vertes pour les cartes adjacentes.


METAR-TAF: